RXA3531 YMML-YDPO

Flight info

Callsign RXA3531
Flight time 1h 4m
Altitude 19000
Route ML6/27 ML H169 IRSOM
Aircraft SF34/M-SDFGR/S

Departure

Time 2026-04-20 03:10
Airport Melbourne Airport (YMML)

Arrival

Time 2026-04-20 04:14
Airport Devonport Airport (YDPO)
Time Latitude Longitude Altitude Speed Heading
2026-04-20 02:31 -37.67571 144.84463 352 ft 0 kts 300°
2026-04-20 02:33 -37.67568 144.84459 352 ft 0 kts 125°
2026-04-20 03:02 -37.67570 144.84461 352 ft 1 kts 128°
2026-04-20 03:02 -37.67580 144.84465 352 ft 1 kts 213°
2026-04-20 03:03 -37.67593 144.84416 352 ft 20 kts 260°
2026-04-20 03:03 -37.67559 144.84335 354 ft 15 kts 358°
2026-04-20 03:03 -37.67413 144.84311 358 ft 28 kts 352°
2026-04-20 03:03 -37.67185 144.84267 369 ft 38 kts 354°
2026-04-20 03:04 -37.66999 144.84232 367 ft 28 kts 351°
2026-04-20 03:04 -37.66795 144.84195 370 ft 17 kts 352°
2026-04-20 03:04 -37.66701 144.84214 369 ft 15 kts 57°
2026-04-20 03:04 -37.66677 144.84388 359 ft 27 kts 86°
2026-04-20 03:05 -37.66655 144.84604 345 ft 30 kts 83°
2026-04-20 03:05 -37.66582 144.84801 329 ft 27 kts
2026-04-20 03:05 -37.66397 144.84781 326 ft 14 kts
2026-04-20 03:05 -37.66362 144.84783 327 ft 0 kts
2026-04-20 03:07 -37.66344 144.84784 325 ft 11 kts
2026-04-20 03:08 -37.66267 144.84778 328 ft 0 kts 342°
2026-04-20 03:08 -37.66238 144.84757 327 ft 12 kts 313°
2026-04-20 03:08 -37.66219 144.84685 334 ft 1 kts 274°
2026-04-20 03:08 -37.66219 144.84672 334 ft 0 kts 274°
2026-04-20 03:09 -37.66204 144.84426 349 ft 63 kts 274°
2026-04-20 03:09 -37.66155 144.83601 398 ft 124 kts 275°
2026-04-20 03:09 -37.66060 144.82363 758 ft 151 kts 275°
2026-04-20 03:10 -37.65961 144.81019 1426 ft 160 kts 272°
2026-04-20 03:10 -37.65808 144.79556 2021 ft 175 kts 276°
2026-04-20 03:10 -37.65671 144.77996 2630 ft 181 kts 272°
2026-04-20 03:10 -37.65584 144.76394 3251 ft 185 kts 272°
2026-04-20 03:11 -37.65512 144.74757 3873 ft 189 kts 272°
2026-04-20 03:11 -37.65443 144.73090 4490 ft 191 kts 272°
2026-04-20 03:11 -37.65505 144.71447 5100 ft 191 kts 254°
2026-04-20 03:11 -37.66299 144.70116 5699 ft 197 kts 216°
2026-04-20 03:12 -37.67625 144.69694 6281 ft 204 kts 178°
2026-04-20 03:12 -37.68936 144.70387 6884 ft 211 kts 142°
2026-04-20 03:12 -37.69797 144.71899 7482 ft 215 kts 121°
2026-04-20 03:12 -37.70490 144.73578 8092 ft 216 kts 119°
2026-04-20 03:13 -37.71172 144.75265 8719 ft 216 kts 119°
2026-04-20 03:13 -37.71848 144.76952 9341 ft 215 kts 119°
2026-04-20 03:13 -37.72523 144.78640 9989 ft 215 kts 119°
2026-04-20 03:13 -37.73188 144.80307 10586 ft 215 kts 119°
2026-04-20 03:14 -37.73861 144.81995 11180 ft 216 kts 120°
2026-04-20 03:14 -37.74536 144.83689 11782 ft 216 kts 120°
2026-04-20 03:14 -37.75213 144.85386 12396 ft 216 kts 120°
2026-04-20 03:14 -37.75890 144.87089 13020 ft 217 kts 120°
2026-04-20 03:15 -37.76648 144.88729 13657 ft 214 kts 136°
2026-04-20 03:15 -37.77898 144.89615 14291 ft 205 kts 170°
2026-04-20 03:15 -37.79268 144.89978 14865 ft 204 kts 170°
2026-04-20 03:15 -37.80633 144.90504 15456 ft 206 kts 164°
2026-04-20 03:16 -37.81978 144.91132 16055 ft 206 kts 165°
2026-04-20 03:16 -37.83328 144.91707 16677 ft 204 kts 166°
2026-04-20 03:16 -37.84662 144.92287 17309 ft 202 kts 166°
2026-04-20 03:16 -37.85981 144.92865 17932 ft 199 kts 166°
2026-04-20 03:17 -37.87281 144.93430 18590 ft 196 kts 166°
2026-04-20 03:17 -37.88589 144.93997 18947 ft 206 kts 166°
2026-04-20 03:17 -37.90015 144.94617 18987 ft 228 kts 165°
2026-04-20 03:17 -37.91548 144.95289 18998 ft 244 kts 165°
2026-04-20 03:18 -37.93191 144.96005 18999 ft 255 kts 165°
2026-04-20 03:18 -37.94894 144.96749 19000 ft 262 kts 165°
2026-04-20 03:18 -37.96632 144.97509 19000 ft 266 kts 165°
2026-04-20 03:18 -37.98392 144.98277 19011 ft 269 kts 165°
2026-04-20 03:19 -38.00168 144.99054 19003 ft 271 kts 165°
2026-04-20 03:19 -38.01950 144.99833 19000 ft 271 kts 165°
2026-04-20 03:19 -38.03737 145.00616 19008 ft 272 kts 165°
2026-04-20 03:19 -38.05503 145.01389 19008 ft 272 kts 165°
2026-04-20 03:20 -38.07292 145.02173 19002 ft 272 kts 165°
2026-04-20 03:20 -38.09079 145.02955 19007 ft 272 kts 165°
2026-04-20 03:20 -38.10872 145.03742 18999 ft 272 kts 165°
2026-04-20 03:20 -38.12627 145.04516 18991 ft 263 kts 165°
2026-04-20 03:21 -38.14340 145.05267 18988 ft 258 kts 165°
2026-04-20 03:21 -38.16025 145.06002 18981 ft 255 kts 165°
2026-04-20 03:21 -38.17694 145.06739 18985 ft 253 kts 165°
2026-04-20 03:21 -38.19334 145.07457 18983 ft 252 kts 165°
2026-04-20 03:22 -38.20990 145.08186 18994 ft 252 kts 165°
2026-04-20 03:22 -38.22652 145.08918 18989 ft 253 kts 165°
2026-04-20 03:22 -38.24311 145.09647 18988 ft 253 kts 165°
2026-04-20 03:22 -38.25970 145.10379 18991 ft 252 kts 165°
2026-04-20 03:23 -38.27633 145.11111 18986 ft 253 kts 165°
2026-04-20 03:23 -38.29294 145.11844 18982 ft 253 kts 165°
2026-04-20 03:23 -38.30955 145.12577 18987 ft 253 kts 165°
2026-04-20 03:23 -38.32594 145.13299 18986 ft 253 kts 165°
2026-04-20 03:24 -38.34252 145.14032 18989 ft 252 kts 165°
2026-04-20 03:24 -38.35911 145.14765 18987 ft 253 kts 165°
2026-04-20 03:24 -38.37572 145.15497 18987 ft 253 kts 165°
2026-04-20 03:24 -38.39233 145.16233 18986 ft 253 kts 165°
2026-04-20 03:25 -38.40894 145.16967 18988 ft 253 kts 165°
2026-04-20 03:25 -38.42553 145.17701 18988 ft 252 kts 165°
2026-04-20 03:25 -38.44212 145.18436 18993 ft 252 kts 165°
2026-04-20 03:25 -38.45849 145.19161 18993 ft 253 kts 165°
2026-04-20 03:26 -38.47511 145.19898 18995 ft 253 kts 165°
2026-04-20 03:26 -38.49170 145.20633 18995 ft 253 kts 165°
2026-04-20 03:26 -38.50832 145.21371 18995 ft 253 kts 165°
2026-04-20 03:26 -38.52497 145.22104 18996 ft 253 kts 166°
2026-04-20 03:27 -38.54163 145.22831 18994 ft 253 kts 165°
2026-04-20 03:27 -38.55825 145.23565 18994 ft 253 kts 165°
2026-04-20 03:27 -38.57488 145.24294 18996 ft 253 kts 165°
2026-04-20 03:27 -38.59130 145.25016 18996 ft 253 kts 165°
2026-04-20 03:28 -38.60791 145.25748 18993 ft 253 kts 165°
2026-04-20 03:28 -38.62453 145.26479 18996 ft 253 kts 165°
2026-04-20 03:28 -38.65774 145.27942 19003 ft 252 kts 165°
2026-04-20 03:29 -38.67434 145.28675 19006 ft 252 kts 165°
2026-04-20 03:29 -38.69094 145.29406 19005 ft 252 kts 165°
2026-04-20 03:29 -38.70752 145.30139 19005 ft 252 kts 165°
2026-04-20 03:29 -38.72411 145.30871 19005 ft 252 kts 165°
2026-04-20 03:30 -38.74048 145.31594 19005 ft 252 kts 165°
2026-04-20 03:30 -38.75705 145.32327 19005 ft 252 kts 165°
2026-04-20 03:30 -38.77363 145.33059 19004 ft 252 kts 165°
2026-04-20 03:30 -38.79043 145.33805 19006 ft 258 kts 165°
2026-04-20 03:31 -38.80745 145.34558 19006 ft 260 kts 165°
2026-04-20 03:31 -38.82457 145.35315 19005 ft 261 kts 165°
2026-04-20 03:31 -38.84176 145.36077 19012 ft 262 kts 165°
2026-04-20 03:31 -38.85897 145.36840 19007 ft 262 kts 165°
2026-04-20 03:32 -38.87620 145.37604 19017 ft 262 kts 165°
2026-04-20 03:32 -38.89345 145.38370 19014 ft 263 kts 165°
2026-04-20 03:32 -38.91049 145.39127 19015 ft 263 kts 165°
2026-04-20 03:32 -38.92776 145.39893 19016 ft 263 kts 165°
2026-04-20 03:33 -38.94501 145.40661 19014 ft 263 kts 165°
2026-04-20 03:33 -38.96227 145.41428 19012 ft 263 kts 165°
2026-04-20 03:33 -38.97955 145.42198 19013 ft 263 kts 165°
2026-04-20 03:33 -38.99685 145.42967 19014 ft 263 kts 165°
2026-04-20 03:34 -39.01412 145.43737 19013 ft 263 kts 165°
2026-04-20 03:34 -39.03140 145.44506 19014 ft 263 kts 165°
2026-04-20 03:34 -39.04845 145.45267 19014 ft 263 kts 165°
2026-04-20 03:34 -39.06571 145.46036 19013 ft 263 kts 165°
2026-04-20 03:35 -39.08299 145.46808 19013 ft 263 kts 165°
2026-04-20 03:35 -39.10025 145.47578 19018 ft 263 kts 165°
2026-04-20 03:35 -39.11753 145.48351 19017 ft 263 kts 165°
2026-04-20 03:35 -39.13481 145.49123 19017 ft 263 kts 165°
2026-04-20 03:36 -39.15208 145.49895 19017 ft 263 kts 165°
2026-04-20 03:36 -39.16910 145.50657 19015 ft 263 kts 165°
2026-04-20 03:36 -39.18636 145.51429 19017 ft 263 kts 165°
2026-04-20 03:36 -39.20364 145.52204 19017 ft 263 kts 165°
2026-04-20 03:37 -39.22090 145.52977 19017 ft 263 kts 165°
2026-04-20 03:37 -39.23819 145.53753 19017 ft 263 kts 165°
2026-04-20 03:37 -39.25546 145.54527 19017 ft 263 kts 165°
2026-04-20 03:37 -39.27272 145.55302 19017 ft 263 kts 165°
2026-04-20 03:38 -39.28999 145.56077 19017 ft 263 kts 165°
2026-04-20 03:38 -39.30723 145.56853 19017 ft 263 kts 165°
2026-04-20 03:38 -39.32426 145.57618 19017 ft 263 kts 165°
2026-04-20 03:38 -39.34151 145.58394 19017 ft 263 kts 165°
2026-04-20 03:39 -39.35876 145.59170 19016 ft 263 kts 165°
2026-04-20 03:39 -39.37600 145.59947 19016 ft 263 kts 165°
2026-04-20 03:39 -39.39326 145.60724 19017 ft 263 kts 165°
2026-04-20 03:39 -39.41051 145.61502 19016 ft 263 kts 165°
2026-04-20 03:40 -39.42776 145.62280 19016 ft 263 kts 165°
2026-04-20 03:40 -39.44501 145.63058 19016 ft 263 kts 165°
2026-04-20 03:40 -39.46201 145.63826 19016 ft 263 kts 165°
2026-04-20 03:40 -39.47927 145.64605 19016 ft 262 kts 165°
2026-04-20 03:41 -39.49651 145.65385 19016 ft 263 kts 165°
2026-04-20 03:41 -39.51375 145.66163 19018 ft 262 kts 165°
2026-04-20 03:41 -39.53099 145.66945 19018 ft 263 kts 165°
2026-04-20 03:41 -39.54823 145.67724 19022 ft 263 kts 165°
2026-04-20 03:42 -39.56548 145.68506 19015 ft 263 kts 165°
2026-04-20 03:42 -39.58272 145.69285 19017 ft 263 kts 165°
2026-04-20 03:42 -39.59974 145.70058 19014 ft 263 kts 165°
2026-04-20 03:42 -39.61700 145.70843 19017 ft 263 kts 165°
2026-04-20 03:43 -39.63424 145.71623 19018 ft 263 kts 165°
2026-04-20 03:43 -39.65149 145.72407 19022 ft 263 kts 165°
2026-04-20 03:43 -39.66873 145.73191 19020 ft 263 kts 165°
2026-04-20 03:43 -39.68598 145.73974 19022 ft 263 kts 165°
2026-04-20 03:44 -39.70322 145.74759 19022 ft 263 kts 165°
2026-04-20 03:44 -39.72045 145.75542 19024 ft 263 kts 165°
2026-04-20 03:44 -39.73770 145.76328 19021 ft 263 kts 165°
2026-04-20 03:44 -39.75470 145.77102 19021 ft 263 kts 165°
2026-04-20 03:45 -39.77194 145.77888 19021 ft 263 kts 165°
2026-04-20 03:45 -39.78918 145.78674 19021 ft 262 kts 165°
2026-04-20 03:45 -39.80638 145.79460 19024 ft 262 kts 165°
2026-04-20 03:45 -39.82360 145.80244 19024 ft 262 kts 165°
2026-04-20 03:46 -39.84080 145.81031 19023 ft 262 kts 165°
2026-04-20 03:46 -39.85801 145.81817 19024 ft 262 kts 165°
2026-04-20 03:46 -39.87522 145.82604 19023 ft 262 kts 165°
2026-04-20 03:46 -39.89241 145.83391 19030 ft 262 kts 165°
2026-04-20 03:47 -39.90940 145.84168 19030 ft 262 kts 165°
2026-04-20 03:47 -39.92661 145.84957 19030 ft 262 kts 165°
2026-04-20 03:47 -39.94382 145.85744 19030 ft 262 kts 165°
2026-04-20 03:47 -39.96102 145.86534 19030 ft 262 kts 165°
2026-04-20 03:48 -39.97823 145.87322 19029 ft 262 kts 165°
2026-04-20 03:48 -39.99543 145.88113 19028 ft 262 kts 165°
2026-04-20 03:48 -40.01262 145.88902 19032 ft 262 kts 165°
2026-04-20 03:48 -40.02977 145.89700 19032 ft 262 kts 165°
2026-04-20 03:49 -40.04669 145.90481 19032 ft 261 kts 165°
2026-04-20 03:49 -40.06382 145.91275 19032 ft 262 kts 165°
2026-04-20 03:49 -40.08098 145.92070 19029 ft 262 kts 165°
2026-04-20 03:49 -40.09814 145.92866 19030 ft 262 kts 165°
2026-04-20 03:50 -40.11530 145.93660 19030 ft 262 kts 165°
2026-04-20 03:50 -40.13245 145.94458 19029 ft 262 kts 165°
2026-04-20 03:50 -40.14961 145.95253 19030 ft 262 kts 165°
2026-04-20 03:50 -40.16676 145.96051 19030 ft 262 kts 165°
2026-04-20 03:51 -40.18393 145.96848 19029 ft 262 kts 165°
2026-04-20 03:51 -40.20086 145.97636 19029 ft 262 kts 165°
2026-04-20 03:51 -40.21802 145.98434 19029 ft 262 kts 165°
2026-04-20 03:51 -40.23518 145.99233 19032 ft 262 kts 165°
2026-04-20 03:52 -40.25232 146.00031 19031 ft 261 kts 165°
2026-04-20 03:52 -40.26943 146.00830 19031 ft 261 kts 165°
2026-04-20 03:52 -40.28655 146.01627 19031 ft 261 kts 165°
2026-04-20 03:52 -40.30366 146.02426 19031 ft 261 kts 165°
2026-04-20 03:53 -40.32078 146.03224 19031 ft 261 kts 165°
2026-04-20 03:53 -40.33788 146.04023 19031 ft 261 kts 165°
2026-04-20 03:53 -40.35477 146.04812 19031 ft 261 kts 165°
2026-04-20 03:53 -40.37185 146.05611 19031 ft 261 kts 165°
2026-04-20 03:54 -40.38896 146.06411 19031 ft 261 kts 165°
2026-04-20 03:54 -40.40606 146.07211 19034 ft 261 kts 165°
2026-04-20 03:54 -40.42316 146.08012 19033 ft 261 kts 165°
2026-04-20 03:54 -40.44026 146.08813 19033 ft 261 kts 165°
2026-04-20 03:55 -40.45735 146.09615 19030 ft 261 kts 165°
2026-04-20 03:55 -40.47444 146.10416 19030 ft 261 kts 165°
2026-04-20 03:55 -40.49152 146.11218 19037 ft 261 kts 165°
2026-04-20 03:55 -40.50861 146.12020 19039 ft 261 kts 165°
2026-04-20 03:56 -40.52547 146.12813 19034 ft 261 kts 165°
2026-04-20 03:56 -40.54254 146.13614 19034 ft 261 kts 165°
2026-04-20 03:56 -40.55961 146.14418 19036 ft 261 kts 165°
2026-04-20 03:56 -40.57669 146.15221 19039 ft 261 kts 165°
2026-04-20 03:57 -40.59375 146.16025 19039 ft 261 kts 165°
2026-04-20 03:57 -40.61082 146.16828 19039 ft 261 kts 165°
2026-04-20 03:57 -40.62790 146.17634 19040 ft 261 kts 165°
2026-04-20 03:57 -40.64495 146.18437 19039 ft 261 kts 165°
2026-04-20 03:58 -40.66179 146.19204 18997 ft 261 kts 167°
2026-04-20 03:58 -40.67949 146.19775 18837 ft 263 kts 175°
2026-04-20 03:58 -40.69761 146.20109 18617 ft 267 kts 172°
2026-04-20 03:58 -40.71467 146.21164 18095 ft 267 kts 147°
2026-04-20 03:59 -40.72858 146.22525 17567 ft 232 kts 156°
2026-04-20 03:59 -40.74268 146.23220 17042 ft 204 kts 169°
2026-04-20 03:59 -40.75616 146.23718 16522 ft 200 kts 168°
2026-04-20 03:59 -40.76935 146.24303 16018 ft 201 kts 164°
2026-04-20 04:00 -40.78229 146.24928 15517 ft 199 kts 170°
2026-04-20 04:00 -40.79565 146.24872 15039 ft 192 kts 197°
2026-04-20 04:00 -40.80850 146.24365 14562 ft 193 kts 200°
2026-04-20 04:00 -40.82139 146.23858 14086 ft 194 kts 197°
2026-04-20 04:01 -40.83434 146.23390 13560 ft 193 kts 199°
2026-04-20 04:01 -40.84716 146.22881 13042 ft 192 kts 200°
2026-04-20 04:01 -40.85991 146.22370 12533 ft 191 kts 200°
2026-04-20 04:01 -40.87284 146.22003 12032 ft 190 kts 188°
2026-04-20 04:02 -40.88534 146.21512 11542 ft 188 kts 207°
2026-04-20 04:02 -40.89721 146.20855 11065 ft 188 kts 202°
2026-04-20 04:02 -40.90966 146.20318 10589 ft 188 kts 201°
2026-04-20 04:02 -40.92211 146.19794 10104 ft 188 kts 200°
2026-04-20 04:03 -40.93453 146.19273 9580 ft 187 kts 200°
2026-04-20 04:03 -40.94686 146.18748 9062 ft 186 kts 200°
2026-04-20 04:03 -40.95910 146.18224 8558 ft 184 kts 200°
2026-04-20 04:03 -40.97124 146.17691 8053 ft 183 kts 200°
2026-04-20 04:04 -40.98331 146.17151 7557 ft 181 kts 200°
2026-04-20 04:04 -40.99467 146.16684 7072 ft 167 kts 196°
2026-04-20 04:04 -41.00570 146.16392 6572 ft 157 kts 191°
2026-04-20 04:04 -41.01644 146.16205 6049 ft 155 kts 186°
2026-04-20 04:05 -41.02704 146.16089 5537 ft 151 kts 187°
2026-04-20 04:05 -41.03731 146.15908 5028 ft 148 kts 190°
2026-04-20 04:05 -41.04740 146.15728 4511 ft 145 kts 184°
2026-04-20 04:05 -41.05721 146.15570 4270 ft 138 kts 189°
2026-04-20 04:06 -41.06638 146.15396 4234 ft 129 kts 183°
2026-04-20 04:06 -41.07518 146.15294 4227 ft 126 kts 189°
2026-04-20 04:06 -41.08380 146.15153 4227 ft 125 kts 184°
2026-04-20 04:06 -41.09234 146.15067 4227 ft 126 kts 185°
2026-04-20 04:07 -41.10243 146.14970 4248 ft 160 kts 183°
2026-04-20 04:07 -41.11415 146.14788 4247 ft 177 kts 188°
2026-04-20 04:07 -41.12665 146.14547 4183 ft 186 kts 188°
2026-04-20 04:07 -41.13976 146.14368 3936 ft 193 kts 175°
2026-04-20 04:08 -41.15186 146.15082 3651 ft 188 kts 136°
2026-04-20 04:08 -41.15843 146.16355 3387 ft 144 kts 126°
2026-04-20 04:08 -41.16388 146.17276 3081 ft 114 kts 121°
2026-04-20 04:08 -41.16890 146.18070 2774 ft 113 kts 135°
2026-04-20 04:09 -41.17399 146.18836 2465 ft 112 kts 117°
2026-04-20 04:09 -41.17723 146.19778 2158 ft 112 kts 114°
2026-04-20 04:09 -41.18058 146.20707 1875 ft 109 kts 114°
2026-04-20 04:09 -41.18374 146.21601 1706 ft 108 kts 116°
2026-04-20 04:10 -41.18795 146.22710 1613 ft 154 kts 116°
2026-04-20 04:10 -41.19294 146.24064 1624 ft 169 kts 115°
2026-04-20 04:10 -41.19576 146.25572 1635 ft 173 kts 84°
2026-04-20 04:10 -41.19134 146.27044 1641 ft 172 kts 64°
2026-04-20 04:11 -41.19054 146.28616 1655 ft 177 kts 106°
2026-04-20 04:11 -41.19427 146.30141 1668 ft 177 kts 99°
2026-04-20 04:11 -41.19303 146.31702 1579 ft 167 kts 65°
2026-04-20 04:11 -41.18796 146.33046 1393 ft 159 kts 63°
2026-04-20 04:12 -41.18400 146.34373 1196 ft 149 kts 77°
2026-04-20 04:12 -41.18187 146.35691 1073 ft 147 kts 73°
2026-04-20 04:12 -41.17899 146.36992 922 ft 146 kts 72°
2026-04-20 04:12 -41.17645 146.38262 684 ft 131 kts 77°
2026-04-20 04:13 -41.17453 146.39361 520 ft 123 kts 76°
2026-04-20 04:13 -41.17247 146.40470 351 ft 120 kts 77°
2026-04-20 04:13 -41.17049 146.41501 146 ft 108 kts 75°
2026-04-20 04:13 -41.16892 146.42369 38 ft 86 kts 76°
2026-04-20 04:14 -41.16844 146.42624 38 ft 2 kts 141°
2026-04-20 04:14 -41.16918 146.42650 36 ft 20 kts 167°
2026-04-20 04:14 -41.17000 146.42677 35 ft 7 kts 166°
2026-04-20 04:14 -41.17076 146.42701 37 ft 13 kts 165°
2026-04-20 04:15 -41.17100 146.42710 35 ft 0 kts 158°
2026-04-20 04:15 -41.17114 146.42728 37 ft 8 kts 137°
2026-04-20 04:15 -41.17125 146.42740 36 ft 0 kts 144°